Map

Track Data

SID SEASON NUMBER BASIN SUBBASIN NAME ISO_TIME NATURE LAT LON WMO_WIND WMO_PRES WMO_AGENCY TRACK_TYPE DIST2LAND LANDFALL IFLAG USA_AGENCY USA_ATCF_ID USA_LAT USA_LON USA_RECORD USA_STATUS USA_WIND USA_PRES USA_SSHS USA_R34_NE USA_R34_SE USA_R34_SW USA_R34_NW USA_R50_NE USA_R50_SE USA_R50_SW USA_R50_NW USA_R64_NE USA_R64_SE USA_R64_SW USA_R64_NW USA_POCI USA_ROCI USA_RMW USA_EYE TOKYO_LAT TOKYO_LON TOKYO_GRADE TOKYO_WIND TOKYO_PRES TOKYO_R50_DIR TOKYO_R50_LONG TOKYO_R50_SHORT TOKYO_R30_DIR TOKYO_R30_LONG TOKYO_R30_SHORT TOKYO_LAND CMA_LAT CMA_LON CMA_CAT CMA_WIND CMA_PRES HKO_LAT HKO_LON HKO_CAT HKO_WIND HKO_PRES NEWDELHI_LAT NEWDELHI_LON NEWDELHI_GRADE NEWDELHI_WIND NEWDELHI_PRES NEWDELHI_CI NEWDELHI_DP NEWDELHI_POCI REUNION_LAT REUNION_LON REUNION_TYPE REUNION_WIND REUNION_PRES REUNION_TNUM REUNION_CI REUNION_RMW REUNION_R34_NE REUNION_R34_SE REUNION_R34_SW REUNION_R34_NW REUNION_R50_NE REUNION_R50_SE REUNION_R50_SW REUNION_R50_NW REUNION_R64_NE REUNION_R64_SE REUNION_R64_SW REUNION_R64_NW BOM_LAT BOM_LON BOM_TYPE BOM_WIND BOM_PRES BOM_TNUM BOM_CI BOM_RMW BOM_R34_NE BOM_R34_SE BOM_R34_SW BOM_R34_NW BOM_R50_NE BOM_R50_SE BOM_R50_SW BOM_R50_NW BOM_R64_NE BOM_R64_SE BOM_R64_SW BOM_R64_NW BOM_ROCI BOM_POCI BOM_EYE BOM_POS_METHOD BOM_PRES_METHOD NADI_LAT NADI_LON NADI_CAT NADI_WIND NADI_PRES WELLINGTON_LAT WELLINGTON_LON WELLINGTON_WIND WELLINGTON_PRES DS824_LAT DS824_LON DS824_STAGE DS824_WIND DS824_PRES TD9636_LAT TD9636_LON TD9636_STAGE TD9636_WIND TD9636_PRES TD9635_LAT TD9635_LON TD9635_WIND TD9635_PRES TD9635_ROCI NEUMANN_LAT NEUMANN_LON NEUMANN_CLASS NEUMANN_WIND NEUMANN_PRES MLC_LAT MLC_LON MLC_CLASS MLC_WIND MLC_PRES USA_GUST BOM_GUST BOM_GUST_PER REUNION_GUST REUNION_GUST_PER USA_SEAHGT USA_SEARAD_NE USA_SEARAD_SE USA_SEARAD_SW USA_SEARAD_NW STORM_SPEED STORM_DIR
1978218N25270 1978 59 NA GM BESS 1978-08-05 12:00:00 TS 25.3000 -90.4000 20 1012 hurdat_atl main 424 424 O_____________ hurdat_atl AL051978 25.3000 -90.4000 TD 20 1012 -1 5 250
1978218N25270 1978 59 NA GM BESS 1978-08-05 15:00:00 TS 25.2100 -90.6775 main 435 435 P_____________ AL051978 25.2100 -90.6775 TD 20 1012 -1 6 250
1978218N25270 1978 59 NA GM BESS 1978-08-05 18:00:00 TS 25.1000 -91.0000 20 1012 hurdat_atl main 446 442 O_____________ hurdat_atl AL051978 25.1000 -91.0000 TD 20 1012 -1 7 249
1978218N25270 1978 59 NA GM BESS 1978-08-05 21:00:00 TS 24.9576 -91.3926 main 450 437 P_____________ AL051978 24.9576 -91.3926 TD 22 1011 -1 8 248
1978218N25270 1978 59 NA GM BESS 1978-08-06 00:00:00 TS 24.8000 -91.8000 25 1011 hurdat_atl main 441 434 O_____________ hurdat_atl AL051978 24.8000 -91.8000 TD 25 1011 -1 8 246
1978218N25270 1978 59 NA GM BESS 1978-08-06 03:00:00 TS 24.6498 -92.1499 main 432 432 P_____________ AL051978 24.6498 -92.1499 TD 27 1010 -1 7 245
1978218N25270 1978 59 NA GM BESS 1978-08-06 06:00:00 TS 24.5000 -92.5000 30 1010 hurdat_atl main 441 441 O_____________ hurdat_atl AL051978 24.5000 -92.5000 TD 30 1010 -1 7 246
1978218N25270 1978 59 NA GM BESS 1978-08-06 09:00:00 TS 24.3500 -92.9000 main 453 423 P_____________ AL051978 24.3500 -92.9000 TD 30 1009 -1 8 248
1978218N25270 1978 59 NA GM BESS 1978-08-06 12:00:00 TS 24.2000 -93.3000 30 1009 hurdat_atl main 423 399 O_____________ hurdat_atl AL051978 24.2000 -93.3000 TD 30 1009 -1 7 247
1978218N25270 1978 59 NA GM BESS 1978-08-06 15:00:00 TS 24.0722 -93.6346 main 399 373 P_____________ AL051978 24.0722 -93.6346 TD 32 1008 -1 7 245
1978218N25270 1978 59 NA GM BESS 1978-08-06 18:00:00 TS 23.9000 -94.0000 35 1008 hurdat_atl main 373 336 O_____________ hurdat_atl AL051978 23.9000 -94.0000 TS 35 1008 0 9 240
1978218N25270 1978 59 NA GM BESS 1978-08-06 21:00:00 TS 23.6152 -94.5004 main 336 285 P_____________ AL051978 23.6152 -94.5004 TS 37 1007 0 11 237
1978218N25270 1978 59 NA GM BESS 1978-08-07 00:00:00 TS 23.3000 -95.0000 40 1007 hurdat_atl main 285 245 O_____________ hurdat_atl AL051978 23.3000 -95.0000 TS 40 1007 0 10 235
1978218N25270 1978 59 NA GM BESS 1978-08-07 03:00:00 TS 23.0498 -95.3872 main 245 212 P_____________ AL051978 23.0498 -95.3872 TS 40 1006 0 8 232
1978218N25270 1978 59 NA GM BESS 1978-08-07 06:00:00 TS 22.8000 -95.7000 40 1006 hurdat_atl main 212 167 O_____________ hurdat_atl AL051978 22.8000 -95.7000 TS 40 1006 0 8 225
1978218N25270 1978 59 NA GM BESS 1978-08-07 09:00:00 TS 22.5074 -95.9724 main 167 131 P_____________ AL051978 22.5074 -95.9724 TS 40 1005 0 8 218
1978218N25270 1978 59 NA GM BESS 1978-08-07 12:00:00 TS 22.2000 -96.2000 40 1005 hurdat_atl main 131 98 O_____________ hurdat_atl AL051978 22.2000 -96.2000 TS 40 1005 0 7 214
1978218N25270 1978 59 NA GM BESS 1978-08-07 15:00:00 TS 21.8925 -96.4225 main 98 72 P_____________ AL051978 21.8925 -96.4225 TS 42 1005 0 7 212
1978218N25270 1978 59 NA GM BESS 1978-08-07 18:00:00 TS 21.6000 -96.6000 45 1006 hurdat_atl main 72 63 O_____________ hurdat_atl AL051978 21.6000 -96.6000 TS 45 1006 0 6 208
1978218N25270 1978 59 NA GM BESS 1978-08-07 21:00:00 TS 21.3575 -96.7224 main 65 56 P_____________ AL051978 21.3575 -96.7224 TS 45 1006 0 5 200
1978218N25270 1978 59 NA GM BESS 1978-08-08 00:00:00 TS 21.1000 -96.8000 45 1007 hurdat_atl main 56 30 O_____________ hurdat_atl AL051978 21.1000 -96.8000 TS 45 1007 0 6 192
1978218N25270 1978 59 NA GM BESS 1978-08-08 03:00:00 TS 20.7425 -96.8575 main 23 0 P_____________ AL051978 20.7425 -96.8575 TS 42 1007 0 7 188
1978218N25270 1978 59 NA GM BESS 1978-08-08 06:00:00 TS 20.4000 -96.9000 40 1008 hurdat_atl main 0 0 O_____________ hurdat_atl AL051978 20.4000 -96.9000 TS 40 1008 0 6 189
1978218N25270 1978 59 NA NA BESS 1978-08-08 09:00:00 TS 20.1650 -96.9475 main 0 0 P_____________ AL051978 20.1650 -96.9475 TS 32 1009 -1 4 193
1978218N25270 1978 59 NA NA BESS 1978-08-08 12:00:00 TS 20.0000 -97.0000 25 1010 hurdat_atl main 0 O_____________ hurdat_atl AL051978 20.0000 -97.0000 TD 25 1010 -1 3 197

About IBTrACS Database

This database is a web-friendly format of International Best Track Archive for Climate Stewardship (IBTrACS), a global best track data archive curated by NOAA dating back to 1842.

Updated: 2021-11-26